sensor_id;sensor_type;location;lat;lon;timestamp;P1;durP1;ratioP1;P2;durP2;ratioP2
10479;SDS011;12789;42.610;23.040;2023-10-19T00:02:06;16.23;;;7.73;;
10479;SDS011;12789;42.610;23.040;2023-10-19T00:04:31;11.30;;;7.40;;
10479;SDS011;12789;42.610;23.040;2023-10-19T00:06:59;8.57;;;6.97;;
10479;SDS011;12789;42.610;23.040;2023-10-19T00:09:25;10.30;;;7.50;;
10479;SDS011;12789;42.610;23.040;2023-10-19T00:11:56;14.13;;;7.53;;
10479;SDS011;12789;42.610;23.040;2023-10-19T00:14:22;13.87;;;7.63;;
10479;SDS011;12789;42.610;23.040;2023-10-19T00:16:51;11.73;;;7.53;;
10479;SDS011;12789;42.610;23.040;2023-10-19T00:19:20;10.20;;;7.03;;
10479;SDS011;12789;42.610;23.040;2023-10-19T00:21:47;12.63;;;7.53;;
10479;SDS011;12789;42.610;23.040;2023-10-19T00:24:16;11.53;;;7.57;;
10479;SDS011;12789;42.610;23.040;2023-10-19T00:26:44;10.83;;;7.00;;
10479;SDS011;12789;42.610;23.040;2023-10-19T00:29:10;8.87;;;6.63;;
10479;SDS011;12789;42.610;23.040;2023-10-19T00:31:55;10.97;;;7.67;;
10479;SDS011;12789;42.610;23.040;2023-10-19T00:34:24;8.60;;;7.70;;
10479;SDS011;12789;42.610;23.040;2023-10-19T00:36:51;16.07;;;8.03;;
10479;SDS011;12789;42.610;23.040;2023-10-19T00:39:19;8.77;;;7.17;;
10479;SDS011;12789;42.610;23.040;2023-10-19T00:41:47;11.13;;;7.13;;
10479;SDS011;12789;42.610;23.040;2023-10-19T00:44:14;10.67;;;7.73;;
10479;SDS011;12789;42.610;23.040;2023-10-19T00:46:47;10.17;;;7.63;;
10479;SDS011;12789;42.610;23.040;2023-10-19T00:49:20;15.63;;;8.70;;
10479;SDS011;12789;42.610;23.040;2023-10-19T00:51:51;11.57;;;8.23;;
10479;SDS011;12789;42.610;23.040;2023-10-19T00:54:27;13.03;;;8.10;;
10479;SDS011;12789;42.610;23.040;2023-10-19T00:56:58;12.43;;;7.57;;
10479;SDS011;12789;42.610;23.040;2023-10-19T00:59:29;12.80;;;8.70;;
10479;SDS011;12789;42.610;23.040;2023-10-19T01:02:00;11.47;;;8.23;;
10479;SDS011;12789;42.610;23.040;2023-10-19T01:04:41;12.30;;;8.80;;
10479;SDS011;12789;42.610;23.040;2023-10-19T01:07:11;10.20;;;7.90;;
10479;SDS011;12789;42.610;23.040;2023-10-19T01:09:41;12.17;;;8.07;;
10479;SDS011;12789;42.610;23.040;2023-10-19T01:12:09;12.10;;;8.03;;
10479;SDS011;12789;42.610;23.040;2023-10-19T01:15:03;9.17;;;8.17;;
10479;SDS011;12789;42.610;23.040;2023-10-19T01:17:32;16.30;;;7.73;;
10479;SDS011;12789;42.610;23.040;2023-10-19T01:20:03;12.53;;;8.90;;
10479;SDS011;12789;42.610;23.040;2023-10-19T01:25:12;9.47;;;7.73;;
10479;SDS011;12789;42.610;23.040;2023-10-19T01:27:48;12.57;;;8.87;;
10479;SDS011;12789;42.610;23.040;2023-10-19T01:30:20;14.20;;;8.43;;
10479;SDS011;12789;42.610;23.040;2023-10-19T01:32:46;10.60;;;9.07;;
10479;SDS011;12789;42.610;23.040;2023-10-19T01:35:13;12.70;;;9.23;;
10479;SDS011;12789;42.610;23.040;2023-10-19T01:37:40;11.37;;;8.80;;
10479;SDS011;12789;42.610;23.040;2023-10-19T01:40:07;10.77;;;9.43;;
10479;SDS011;12789;42.610;23.040;2023-10-19T01:42:35;10.37;;;8.90;;
10479;SDS011;12789;42.610;23.040;2023-10-19T01:45:00;11.97;;;9.10;;
10479;SDS011;12789;42.610;23.040;2023-10-19T01:47:27;12.53;;;8.90;;
10479;SDS011;12789;42.610;23.040;2023-10-19T01:49:53;12.87;;;9.17;;
10479;SDS011;12789;42.610;23.040;2023-10-19T01:52:20;10.03;;;8.80;;
10479;SDS011;12789;42.610;23.040;2023-10-19T01:54:49;13.17;;;8.80;;
10479;SDS011;12789;42.610;23.040;2023-10-19T01:57:24;10.17;;;8.53;;
10479;SDS011;12789;42.610;23.040;2023-10-19T01:59:52;16.17;;;10.80;;
10479;SDS011;12789;42.610;23.040;2023-10-19T02:02:18;15.37;;;10.80;;
10479;SDS011;12789;42.610;23.040;2023-10-19T02:04:46;14.80;;;10.97;;
10479;SDS011;12789;42.610;23.040;2023-10-19T02:07:15;22.97;;;12.40;;
10479;SDS011;12789;42.610;23.040;2023-10-19T02:09:43;24.00;;;13.03;;
10479;SDS011;12789;42.610;23.040;2023-10-19T02:12:09;19.93;;;13.27;;
10479;SDS011;12789;42.610;23.040;2023-10-19T02:14:35;20.63;;;13.97;;
10479;SDS011;12789;42.610;23.040;2023-10-19T02:17:03;20.73;;;13.37;;
10479;SDS011;12789;42.610;23.040;2023-10-19T02:19:29;22.13;;;13.77;;
10479;SDS011;12789;42.610;23.040;2023-10-19T02:21:56;21.90;;;14.10;;
10479;SDS011;12789;42.610;23.040;2023-10-19T02:24:22;19.10;;;13.83;;
10479;SDS011;12789;42.610;23.040;2023-10-19T02:26:50;22.67;;;13.73;;
10479;SDS011;12789;42.610;23.040;2023-10-19T02:29:16;25.60;;;13.80;;
10479;SDS011;12789;42.610;23.040;2023-10-19T02:31:43;25.10;;;12.60;;
10479;SDS011;12789;42.610;23.040;2023-10-19T02:34:11;14.90;;;10.90;;
10479;SDS011;12789;42.610;23.040;2023-10-19T02:36:40;14.40;;;10.00;;
10479;SDS011;12789;42.610;23.040;2023-10-19T02:39:08;13.37;;;9.10;;
10479;SDS011;12789;42.610;23.040;2023-10-19T02:41:34;12.00;;;8.73;;
10479;SDS011;12789;42.610;23.040;2023-10-19T02:44:02;12.80;;;9.77;;
10479;SDS011;12789;42.610;23.040;2023-10-19T02:46:30;15.17;;;9.43;;
10479;SDS011;12789;42.610;23.040;2023-10-19T02:48:59;12.77;;;9.57;;
10479;SDS011;12789;42.610;23.040;2023-10-19T02:51:27;19.93;;;10.17;;
10479;SDS011;12789;42.610;23.040;2023-10-19T02:53:54;18.23;;;9.70;;
10479;SDS011;12789;42.610;23.040;2023-10-19T02:56:20;16.40;;;9.63;;
10479;SDS011;12789;42.610;23.040;2023-10-19T02:58:49;18.67;;;9.93;;
10479;SDS011;12789;42.610;23.040;2023-10-19T03:01:16;19.37;;;10.17;;
10479;SDS011;12789;42.610;23.040;2023-10-19T03:03:46;15.37;;;10.03;;
10479;SDS011;12789;42.610;23.040;2023-10-19T03:06:14;24.30;;;10.07;;
10479;SDS011;12789;42.610;23.040;2023-10-19T03:08:41;19.87;;;10.00;;
10479;SDS011;12789;42.610;23.040;2023-10-19T03:11:11;24.13;;;11.33;;
10479;SDS011;12789;42.610;23.040;2023-10-19T03:13:38;38.37;;;12.90;;
10479;SDS011;12789;42.610;23.040;2023-10-19T03:16:06;29.70;;;11.50;;
10479;SDS011;12789;42.610;23.040;2023-10-19T03:18:32;24.97;;;12.90;;
10479;SDS011;12789;42.610;23.040;2023-10-19T03:21:00;32.60;;;13.53;;
10479;SDS011;12789;42.610;23.040;2023-10-19T03:23:25;29.27;;;13.13;;
10479;SDS011;12789;42.610;23.040;2023-10-19T03:25:55;46.30;;;14.87;;
10479;SDS011;12789;42.610;23.040;2023-10-19T03:28:40;36.00;;;14.93;;
10479;SDS011;12789;42.610;23.040;2023-10-19T03:31:08;72.93;;;16.17;;
10479;SDS011;12789;42.610;23.040;2023-10-19T03:33:33;36.00;;;15.73;;
10479;SDS011;12789;42.610;23.040;2023-10-19T03:36:01;36.27;;;15.53;;
10479;SDS011;12789;42.610;23.040;2023-10-19T03:38:28;40.20;;;15.87;;
10479;SDS011;12789;42.610;23.040;2023-10-19T03:41:00;36.17;;;15.93;;
10479;SDS011;12789;42.610;23.040;2023-10-19T03:43:32;47.30;;;16.03;;
10479;SDS011;12789;42.610;23.040;2023-10-19T03:46:01;30.03;;;11.63;;
10479;SDS011;12789;42.610;23.040;2023-10-19T03:48:31;54.83;;;15.50;;
10479;SDS011;12789;42.610;23.040;2023-10-19T03:51:03;40.87;;;16.47;;
10479;SDS011;12789;42.610;23.040;2023-10-19T03:53:30;37.43;;;14.70;;
10479;SDS011;12789;42.610;23.040;2023-10-19T03:55:58;34.37;;;16.23;;
10479;SDS011;12789;42.610;23.040;2023-10-19T03:58:26;44.13;;;16.10;;
10479;SDS011;12789;42.610;23.040;2023-10-19T04:00:55;72.67;;;16.70;;
10479;SDS011;12789;42.610;23.040;2023-10-19T04:03:26;59.77;;;17.50;;
10479;SDS011;12789;42.610;23.040;2023-10-19T04:05:55;36.70;;;15.77;;
10479;SDS011;12789;42.610;23.040;2023-10-19T04:08:25;34.33;;;14.83;;
10479;SDS011;12789;42.610;23.040;2023-10-19T04:10:52;48.47;;;17.33;;
10479;SDS011;12789;42.610;23.040;2023-10-19T04:13:34;49.53;;;18.83;;
10479;SDS011;12789;42.610;23.040;2023-10-19T04:16:01;55.03;;;19.37;;
10479;SDS011;12789;42.610;23.040;2023-10-19T04:18:28;51.33;;;18.20;;
10479;SDS011;12789;42.610;23.040;2023-10-19T04:20:55;56.97;;;18.67;;
10479;SDS011;12789;42.610;23.040;2023-10-19T04:23:22;42.73;;;17.63;;
10479;SDS011;12789;42.610;23.040;2023-10-19T04:25:52;41.20;;;17.83;;
10479;SDS011;12789;42.610;23.040;2023-10-19T04:28:19;43.17;;;16.53;;
10479;SDS011;12789;42.610;23.040;2023-10-19T04:30:56;37.80;;;17.07;;
10479;SDS011;12789;42.610;23.040;2023-10-19T04:33:28;41.20;;;19.77;;
10479;SDS011;12789;42.610;23.040;2023-10-19T04:35:54;50.63;;;19.27;;
10479;SDS011;12789;42.610;23.040;2023-10-19T04:38:25;53.93;;;22.20;;
10479;SDS011;12789;42.610;23.040;2023-10-19T04:40:51;47.30;;;20.67;;
10479;SDS011;12789;42.610;23.040;2023-10-19T04:43:18;47.77;;;21.70;;
10479;SDS011;12789;42.610;23.040;2023-10-19T04:45:46;57.87;;;23.87;;
10479;SDS011;12789;42.610;23.040;2023-10-19T04:48:15;69.23;;;28.53;;
10479;SDS011;12789;42.610;23.040;2023-10-19T04:50:42;82.43;;;27.40;;
10479;SDS011;12789;42.610;23.040;2023-10-19T04:53:08;55.37;;;20.83;;
10479;SDS011;12789;42.610;23.040;2023-10-19T04:55:35;51.97;;;20.57;;
10479;SDS011;12789;42.610;23.040;2023-10-19T04:58:03;42.67;;;19.10;;
10479;SDS011;12789;42.610;23.040;2023-10-19T05:00:31;55.83;;;18.93;;
10479;SDS011;12789;42.610;23.040;2023-10-19T05:02:58;83.03;;;16.07;;
10479;SDS011;12789;42.610;23.040;2023-10-19T05:05:28;40.27;;;17.03;;
10479;SDS011;12789;42.610;23.040;2023-10-19T05:07:54;35.57;;;16.73;;
10479;SDS011;12789;42.610;23.040;2023-10-19T05:10:21;48.63;;;17.90;;
10479;SDS011;12789;42.610;23.040;2023-10-19T05:12:47;166.83;;;24.50;;
10479;SDS011;12789;42.610;23.040;2023-10-19T05:15:14;84.77;;;22.37;;
10479;SDS011;12789;42.610;23.040;2023-10-19T05:17:41;93.63;;;21.83;;
10479;SDS011;12789;42.610;23.040;2023-10-19T05:20:08;53.00;;;22.83;;
10479;SDS011;12789;42.610;23.040;2023-10-19T05:22:36;58.53;;;23.30;;
10479;SDS011;12789;42.610;23.040;2023-10-19T05:25:03;64.10;;;23.90;;
10479;SDS011;12789;42.610;23.040;2023-10-19T05:27:29;53.77;;;24.17;;
10479;SDS011;12789;42.610;23.040;2023-10-19T05:29:57;47.67;;;19.30;;
10479;SDS011;12789;42.610;23.040;2023-10-19T05:32:23;55.23;;;20.47;;
10479;SDS011;12789;42.610;23.040;2023-10-19T05:34:50;46.43;;;18.53;;
10479;SDS011;12789;42.610;23.040;2023-10-19T05:37:17;47.13;;;18.67;;
10479;SDS011;12789;42.610;23.040;2023-10-19T05:39:45;48.77;;;17.87;;
10479;SDS011;12789;42.610;23.040;2023-10-19T05:42:12;43.93;;;18.30;;
10479;SDS011;12789;42.610;23.040;2023-10-19T05:44:38;42.53;;;16.93;;
10479;SDS011;12789;42.610;23.040;2023-10-19T05:47:06;39.07;;;19.13;;
10479;SDS011;12789;42.610;23.040;2023-10-19T05:49:33;37.07;;;17.83;;
10479;SDS011;12789;42.610;23.040;2023-10-19T05:52:00;41.53;;;19.80;;
10479;SDS011;12789;42.610;23.040;2023-10-19T05:54:28;42.77;;;18.40;;
10479;SDS011;12789;42.610;23.040;2023-10-19T05:56:56;38.53;;;18.97;;
10479;SDS011;12789;42.610;23.040;2023-10-19T05:59:23;38.33;;;20.07;;
10479;SDS011;12789;42.610;23.040;2023-10-19T06:01:51;53.10;;;21.90;;
10479;SDS011;12789;42.610;23.040;2023-10-19T06:04:18;45.87;;;21.43;;
10479;SDS011;12789;42.610;23.040;2023-10-19T06:06:45;36.10;;;18.73;;
10479;SDS011;12789;42.610;23.040;2023-10-19T06:09:12;28.90;;;17.03;;
10479;SDS011;12789;42.610;23.040;2023-10-19T06:11:40;32.17;;;16.03;;
10479;SDS011;12789;42.610;23.040;2023-10-19T06:14:10;28.00;;;14.83;;
10479;SDS011;12789;42.610;23.040;2023-10-19T06:16:37;32.87;;;15.47;;
10479;SDS011;12789;42.610;23.040;2023-10-19T06:19:04;28.40;;;16.33;;
10479;SDS011;12789;42.610;23.040;2023-10-19T06:21:30;40.10;;;18.03;;
10479;SDS011;12789;42.610;23.040;2023-10-19T06:23:58;37.53;;;17.53;;
10479;SDS011;12789;42.610;23.040;2023-10-19T06:26:25;38.37;;;19.93;;
10479;SDS011;12789;42.610;23.040;2023-10-19T06:28:52;36.17;;;19.33;;
10479;SDS011;12789;42.610;23.040;2023-10-19T06:31:23;37.13;;;19.60;;
10479;SDS011;12789;42.610;23.040;2023-10-19T06:33:51;39.30;;;20.77;;
10479;SDS011;12789;42.610;23.040;2023-10-19T06:36:17;105.13;;;66.53;;
10479;SDS011;12789;42.610;23.040;2023-10-19T06:38:45;41.50;;;25.07;;
10479;SDS011;12789;42.610;23.040;2023-10-19T06:41:14;32.63;;;19.37;;
10479;SDS011;12789;42.610;23.040;2023-10-19T06:43:43;16.27;;;8.33;;
10479;SDS011;12789;42.610;23.040;2023-10-19T06:46:10;21.13;;;11.37;;
10479;SDS011;12789;42.610;23.040;2023-10-19T06:48:38;19.97;;;12.70;;
10479;SDS011;12789;42.610;23.040;2023-10-19T06:51:05;19.33;;;12.53;;
10479;SDS011;12789;42.610;23.040;2023-10-19T06:53:32;16.03;;;9.00;;
10479;SDS011;12789;42.610;23.040;2023-10-19T06:55:59;12.70;;;7.40;;
10479;SDS011;12789;42.610;23.040;2023-10-19T06:58:26;6.80;;;5.87;;
10479;SDS011;12789;42.610;23.040;2023-10-19T07:00:52;5.73;;;4.27;;
10479;SDS011;12789;42.610;23.040;2023-10-19T07:03:25;7.07;;;4.90;;
10479;SDS011;12789;42.610;23.040;2023-10-19T07:05:54;6.73;;;4.43;;
10479;SDS011;12789;42.610;23.040;2023-10-19T07:08:22;8.43;;;6.70;;
10479;SDS011;12789;42.610;23.040;2023-10-19T07:10:48;7.03;;;4.57;;
10479;SDS011;12789;42.610;23.040;2023-10-19T07:13:15;7.83;;;5.17;;
10479;SDS011;12789;42.610;23.040;2023-10-19T07:15:44;9.77;;;4.70;;
10479;SDS011;12789;42.610;23.040;2023-10-19T07:18:11;4.13;;;3.60;;
10479;SDS011;12789;42.610;23.040;2023-10-19T07:20:38;8.53;;;4.57;;
10479;SDS011;12789;42.610;23.040;2023-10-19T07:23:09;10.45;;;5.65;;
10479;SDS011;12789;42.610;23.040;2023-10-19T07:25:43;8.27;;;5.00;;
10479;SDS011;12789;42.610;23.040;2023-10-19T07:28:10;7.80;;;4.68;;
10479;SDS011;12789;42.610;23.040;2023-10-19T07:30:38;10.40;;;4.82;;
10479;SDS011;12789;42.610;23.040;2023-10-19T07:33:05;9.73;;;4.97;;
10479;SDS011;12789;42.610;23.040;2023-10-19T07:35:34;11.15;;;5.30;;
10479;SDS011;12789;42.610;23.040;2023-10-19T07:38:03;6.13;;;4.50;;
10479;SDS011;12789;42.610;23.040;2023-10-19T07:40:33;5.15;;;4.53;;
10479;SDS011;12789;42.610;23.040;2023-10-19T07:43:00;6.22;;;5.63;;
10479;SDS011;12789;42.610;23.040;2023-10-19T07:45:29;6.88;;;5.55;;
10479;SDS011;12789;42.610;23.040;2023-10-19T07:47:56;13.57;;;11.07;;
10479;SDS011;12789;42.610;23.040;2023-10-19T07:50:31;5.90;;;4.70;;
10479;SDS011;12789;42.610;23.040;2023-10-19T07:52:58;4.50;;;3.80;;
10479;SDS011;12789;42.610;23.040;2023-10-19T07:55:24;5.18;;;3.83;;
10479;SDS011;12789;42.610;23.040;2023-10-19T07:57:54;5.38;;;4.43;;
10479;SDS011;12789;42.610;23.040;2023-10-19T08:00:21;8.02;;;4.30;;
10479;SDS011;12789;42.610;23.040;2023-10-19T08:02:48;15.75;;;8.05;;
10479;SDS011;12789;42.610;23.040;2023-10-19T08:05:16;8.88;;;6.28;;
10479;SDS011;12789;42.610;23.040;2023-10-19T08:07:46;8.20;;;5.00;;
10479;SDS011;12789;42.610;23.040;2023-10-19T08:10:18;43.75;;;24.00;;
10479;SDS011;12789;42.610;23.040;2023-10-19T08:12:45;7.60;;;5.32;;
10479;SDS011;12789;42.610;23.040;2023-10-19T08:15:14;14.50;;;10.68;;
10479;SDS011;12789;42.610;23.040;2023-10-19T08:17:42;69.65;;;39.28;;
10479;SDS011;12789;42.610;23.040;2023-10-19T08:20:10;19.90;;;14.70;;
10479;SDS011;12789;42.610;23.040;2023-10-19T08:22:41;8.25;;;3.90;;
10479;SDS011;12789;42.610;23.040;2023-10-19T08:25:08;3.53;;;3.22;;
10479;SDS011;12789;42.610;23.040;2023-10-19T08:27:38;10.13;;;5.90;;
10479;SDS011;12789;42.610;23.040;2023-10-19T08:30:05;6.30;;;4.03;;
10479;SDS011;12789;42.610;23.040;2023-10-19T08:32:35;6.40;;;4.07;;
10479;SDS011;12789;42.610;23.040;2023-10-19T08:35:02;3.55;;;3.25;;
10479;SDS011;12789;42.610;23.040;2023-10-19T08:37:29;6.18;;;2.83;;
10479;SDS011;12789;42.610;23.040;2023-10-19T08:39:56;2.88;;;2.63;;
10479;SDS011;12789;42.610;23.040;2023-10-19T08:42:24;3.70;;;2.70;;
10479;SDS011;12789;42.610;23.040;2023-10-19T08:44:51;7.80;;;5.55;;
10479;SDS011;12789;42.610;23.040;2023-10-19T08:47:17;5.88;;;5.28;;
10479;SDS011;12789;42.610;23.040;2023-10-19T08:49:46;7.32;;;6.47;;
10479;SDS011;12789;42.610;23.040;2023-10-19T08:52:13;7.38;;;6.63;;
10479;SDS011;12789;42.610;23.040;2023-10-19T08:54:41;4.38;;;3.53;;
10479;SDS011;12789;42.610;23.040;2023-10-19T08:57:08;7.63;;;5.82;;
10479;SDS011;12789;42.610;23.040;2023-10-19T08:59:34;6.75;;;4.15;;
10479;SDS011;12789;42.610;23.040;2023-10-19T09:02:03;3.88;;;2.65;;
10479;SDS011;12789;42.610;23.040;2023-10-19T09:04:32;3.17;;;2.70;;
10479;SDS011;12789;42.610;23.040;2023-10-19T09:07:00;4.10;;;2.80;;
10479;SDS011;12789;42.610;23.040;2023-10-19T09:09:31;2.80;;;2.40;;
10479;SDS011;12789;42.610;23.040;2023-10-19T09:11:58;3.28;;;2.70;;
10479;SDS011;12789;42.610;23.040;2023-10-19T09:14:30;2.70;;;2.50;;
10479;SDS011;12789;42.610;23.040;2023-10-19T09:16:58;2.30;;;2.10;;
10479;SDS011;12789;42.610;23.040;2023-10-19T09:19:38;5.97;;;5.35;;
10479;SDS011;12789;42.610;23.040;2023-10-19T09:22:07;3.58;;;2.83;;
10479;SDS011;12789;42.610;23.040;2023-10-19T09:24:42;6.82;;;4.18;;
10479;SDS011;12789;42.610;23.040;2023-10-19T09:27:08;5.18;;;4.35;;
10479;SDS011;12789;42.610;23.040;2023-10-19T09:29:35;3.00;;;2.80;;
10479;SDS011;12789;42.610;23.040;2023-10-19T09:32:04;2.80;;;2.70;;
10479;SDS011;12789;42.610;23.040;2023-10-19T09:34:31;3.17;;;2.40;;
10479;SDS011;12789;42.610;23.040;2023-10-19T09:36:58;7.90;;;2.80;;
10479;SDS011;12789;42.610;23.040;2023-10-19T09:39:27;2.50;;;2.40;;
10479;SDS011;12789;42.610;23.040;2023-10-19T09:42:02;3.45;;;2.30;;
10479;SDS011;12789;42.610;23.040;2023-10-19T09:44:32;3.45;;;3.13;;
10479;SDS011;12789;42.610;23.040;2023-10-19T09:47:03;3.05;;;2.85;;
10479;SDS011;12789;42.610;23.040;2023-10-19T09:49:30;3.53;;;2.70;;
10479;SDS011;12789;42.610;23.040;2023-10-19T09:51:58;2.85;;;2.65;;
10479;SDS011;12789;42.610;23.040;2023-10-19T09:54:29;5.43;;;4.05;;
10479;SDS011;12789;42.610;23.040;2023-10-19T09:56:58;4.00;;;2.78;;
10479;SDS011;12789;42.610;23.040;2023-10-19T09:59:29;4.50;;;2.90;;
10479;SDS011;12789;42.610;23.040;2023-10-19T10:02:06;3.83;;;3.00;;
10479;SDS011;12789;42.610;23.040;2023-10-19T10:04:33;3.42;;;2.70;;
10479;SDS011;12789;42.610;23.040;2023-10-19T10:07:01;3.20;;;2.80;;
10479;SDS011;12789;42.610;23.040;2023-10-19T10:09:32;2.38;;;2.28;;
10479;SDS011;12789;42.610;23.040;2023-10-19T10:12:15;3.20;;;2.90;;
10479;SDS011;12789;42.610;23.040;2023-10-19T10:14:44;4.60;;;4.07;;
10479;SDS011;12789;42.610;23.040;2023-10-19T10:17:18;2.80;;;2.50;;
10479;SDS011;12789;42.610;23.040;2023-10-19T10:19:45;3.20;;;2.90;;
10479;SDS011;12789;42.610;23.040;2023-10-19T10:22:13;2.92;;;2.72;;
10479;SDS011;12789;42.610;23.040;2023-10-19T10:24:42;3.00;;;2.70;;
10479;SDS011;12789;42.610;23.040;2023-10-19T10:27:09;4.70;;;3.00;;
10479;SDS011;12789;42.610;23.040;2023-10-19T10:29:43;4.90;;;2.83;;
10479;SDS011;12789;42.610;23.040;2023-10-19T10:35:01;5.68;;;2.92;;
10479;SDS011;12789;42.610;23.040;2023-10-19T10:37:32;4.20;;;2.60;;
10479;SDS011;12789;42.610;23.040;2023-10-19T10:40:05;2.75;;;2.30;;
10479;SDS011;12789;42.610;23.040;2023-10-19T10:42:32;5.32;;;2.50;;
10479;SDS011;12789;42.610;23.040;2023-10-19T10:44:59;5.18;;;2.35;;
10479;SDS011;12789;42.610;23.040;2023-10-19T10:47:28;3.72;;;2.70;;
10479;SDS011;12789;42.610;23.040;2023-10-19T10:49:57;16.98;;;7.10;;
10479;SDS011;12789;42.610;23.040;2023-10-19T10:52:28;2.90;;;2.10;;
10479;SDS011;12789;42.610;23.040;2023-10-19T10:54:55;4.30;;;2.33;;
10479;SDS011;12789;42.610;23.040;2023-10-19T10:57:23;4.07;;;2.53;;
10479;SDS011;12789;42.610;23.040;2023-10-19T11:00:03;3.50;;;1.90;;
10479;SDS011;12789;42.610;23.040;2023-10-19T11:02:31;3.25;;;2.60;;
10479;SDS011;12789;42.610;23.040;2023-10-19T11:04:58;4.30;;;2.33;;
10479;SDS011;12789;42.610;23.040;2023-10-19T11:07:25;3.13;;;2.00;;
10479;SDS011;12789;42.610;23.040;2023-10-19T11:09:52;6.85;;;2.13;;
10479;SDS011;12789;42.610;23.040;2023-10-19T11:12:18;6.32;;;2.30;;
10479;SDS011;12789;42.610;23.040;2023-10-19T11:14:53;6.25;;;2.45;;
10479;SDS011;12789;42.610;23.040;2023-10-19T11:17:20;2.90;;;2.05;;
10479;SDS011;12789;42.610;23.040;2023-10-19T11:19:53;2.50;;;1.73;;
10479;SDS011;12789;42.610;23.040;2023-10-19T11:22:21;2.03;;;1.77;;
10479;SDS011;12789;42.610;23.040;2023-10-19T11:24:50;1.83;;;1.73;;
10479;SDS011;12789;42.610;23.040;2023-10-19T11:27:21;3.53;;;1.60;;
10479;SDS011;12789;42.610;23.040;2023-10-19T11:29:56;1.52;;;1.42;;
10479;SDS011;12789;42.610;23.040;2023-10-19T11:32:23;3.80;;;1.50;;
10479;SDS011;12789;42.610;23.040;2023-10-19T11:34:50;1.75;;;1.40;;
10479;SDS011;12789;42.610;23.040;2023-10-19T11:37:17;2.80;;;1.63;;
10479;SDS011;12789;42.610;23.040;2023-10-19T11:39:43;2.15;;;1.20;;
10479;SDS011;12789;42.610;23.040;2023-10-19T11:42:11;1.50;;;1.40;;
10479;SDS011;12789;42.610;23.040;2023-10-19T11:44:37;1.08;;;1.08;;
10479;SDS011;12789;42.610;23.040;2023-10-19T11:47:06;1.23;;;1.20;;
10479;SDS011;12789;42.610;23.040;2023-10-19T11:49:32;1.45;;;1.30;;
10479;SDS011;12789;42.610;23.040;2023-10-19T11:52:00;3.05;;;1.17;;
10479;SDS011;12789;42.610;23.040;2023-10-19T11:54:27;1.60;;;1.50;;
10479;SDS011;12789;42.610;23.040;2023-10-19T11:56:54;1.77;;;1.35;;
10479;SDS011;12789;42.610;23.040;2023-10-19T11:59:21;1.20;;;1.20;;
10479;SDS011;12789;42.610;23.040;2023-10-19T12:01:48;3.58;;;1.40;;
10479;SDS011;12789;42.610;23.040;2023-10-19T12:04:16;1.60;;;1.30;;
10479;SDS011;12789;42.610;23.040;2023-10-19T12:06:44;2.40;;;2.20;;
10479;SDS011;12789;42.610;23.040;2023-10-19T12:09:11;1.50;;;1.40;;
10479;SDS011;12789;42.610;23.040;2023-10-19T12:11:41;1.58;;;1.40;;
10479;SDS011;12789;42.610;23.040;2023-10-19T12:14:07;1.60;;;1.50;;
10479;SDS011;12789;42.610;23.040;2023-10-19T12:16:37;1.67;;;1.52;;
10479;SDS011;12789;42.610;23.040;2023-10-19T12:19:04;1.95;;;1.45;;
10479;SDS011;12789;42.610;23.040;2023-10-19T12:21:34;2.25;;;1.30;;
10479;SDS011;12789;42.610;23.040;2023-10-19T12:24:03;1.40;;;1.30;;
10479;SDS011;12789;42.610;23.040;2023-10-19T12:26:30;1.25;;;1.00;;
10479;SDS011;12789;42.610;23.040;2023-10-19T12:28:56;4.88;;;1.17;;
10479;SDS011;12789;42.610;23.040;2023-10-19T12:31:23;2.20;;;1.15;;
10479;SDS011;12789;42.610;23.040;2023-10-19T12:33:50;1.95;;;1.42;;
10479;SDS011;12789;42.610;23.040;2023-10-19T12:36:18;1.10;;;1.10;;
10479;SDS011;12789;42.610;23.040;2023-10-19T12:38:59;1.40;;;1.30;;
10479;SDS011;12789;42.610;23.040;2023-10-19T12:41:25;4.00;;;1.20;;
10479;SDS011;12789;42.610;23.040;2023-10-19T12:43:52;2.60;;;1.00;;
10479;SDS011;12789;42.610;23.040;2023-10-19T12:46:22;1.60;;;1.25;;
10479;SDS011;12789;42.610;23.040;2023-10-19T12:48:50;1.10;;;1.00;;
10479;SDS011;12789;42.610;23.040;2023-10-19T12:51:16;1.95;;;1.30;;
10479;SDS011;12789;42.610;23.040;2023-10-19T12:53:48;1.65;;;1.33;;
10479;SDS011;12789;42.610;23.040;2023-10-19T12:56:17;3.10;;;1.48;;
10479;SDS011;12789;42.610;23.040;2023-10-19T12:58:44;3.30;;;1.27;;
10479;SDS011;12789;42.610;23.040;2023-10-19T13:01:11;1.40;;;1.30;;
10479;SDS011;12789;42.610;23.040;2023-10-19T13:03:41;2.65;;;1.30;;
10479;SDS011;12789;42.610;23.040;2023-10-19T13:06:10;18.35;;;15.02;;
10479;SDS011;12789;42.610;23.040;2023-10-19T13:08:37;4.45;;;2.08;;
10479;SDS011;12789;42.610;23.040;2023-10-19T13:11:06;3.58;;;1.70;;
10479;SDS011;12789;42.610;23.040;2023-10-19T13:13:34;1.60;;;1.50;;
10479;SDS011;12789;42.610;23.040;2023-10-19T13:16:02;0.90;;;0.90;;
10479;SDS011;12789;42.610;23.040;2023-10-19T13:18:30;1.38;;;1.25;;
10479;SDS011;12789;42.610;23.040;2023-10-19T13:20:59;4.63;;;1.23;;
10479;SDS011;12789;42.610;23.040;2023-10-19T13:23:30;2.03;;;1.42;;
10479;SDS011;12789;42.610;23.040;2023-10-19T13:25:58;1.40;;;1.30;;
10479;SDS011;12789;42.610;23.040;2023-10-19T13:28:35;1.88;;;1.40;;
10479;SDS011;12789;42.610;23.040;2023-10-19T13:31:02;1.92;;;1.83;;
10479;SDS011;12789;42.610;23.040;2023-10-19T13:33:29;5.53;;;3.75;;
10479;SDS011;12789;42.610;23.040;2023-10-19T13:35:57;4.93;;;1.20;;
10479;SDS011;12789;42.610;23.040;2023-10-19T13:38:23;1.35;;;1.27;;
10479;SDS011;12789;42.610;23.040;2023-10-19T13:40:50;1.30;;;1.25;;
10479;SDS011;12789;42.610;23.040;2023-10-19T13:43:17;6.05;;;1.60;;
10479;SDS011;12789;42.610;23.040;2023-10-19T13:45:48;1.38;;;1.33;;
10479;SDS011;12789;42.610;23.040;2023-10-19T13:48:18;2.80;;;1.40;;
10479;SDS011;12789;42.610;23.040;2023-10-19T13:50:45;1.30;;;1.30;;
10479;SDS011;12789;42.610;23.040;2023-10-19T13:53:13;4.72;;;1.50;;
10479;SDS011;12789;42.610;23.040;2023-10-19T13:55:40;1.80;;;1.40;;
10479;SDS011;12789;42.610;23.040;2023-10-19T13:58:07;5.22;;;1.80;;
10479;SDS011;12789;42.610;23.040;2023-10-19T14:00:33;2.83;;;1.40;;
10479;SDS011;12789;42.610;23.040;2023-10-19T14:03:07;2.72;;;1.67;;
10479;SDS011;12789;42.610;23.040;2023-10-19T14:05:37;2.83;;;1.55;;
10479;SDS011;12789;42.610;23.040;2023-10-19T14:08:05;3.70;;;1.50;;
10479;SDS011;12789;42.610;23.040;2023-10-19T14:10:32;3.05;;;1.63;;
10479;SDS011;12789;42.610;23.040;2023-10-19T14:12:58;3.58;;;1.70;;
10479;SDS011;12789;42.610;23.040;2023-10-19T14:15:27;1.83;;;1.73;;
10479;SDS011;12789;42.610;23.040;2023-10-19T14:17:57;2.83;;;1.38;;
10479;SDS011;12789;42.610;23.040;2023-10-19T14:20:28;6.60;;;1.65;;
10479;SDS011;12789;42.610;23.040;2023-10-19T14:22:56;4.05;;;1.73;;
10479;SDS011;12789;42.610;23.040;2023-10-19T14:25:25;5.97;;;1.48;;
10479;SDS011;12789;42.610;23.040;2023-10-19T14:27:52;1.83;;;1.58;;
10479;SDS011;12789;42.610;23.040;2023-10-19T14:30:21;2.25;;;1.60;;
10479;SDS011;12789;42.610;23.040;2023-10-19T14:32:48;3.38;;;1.90;;
10479;SDS011;12789;42.610;23.040;2023-10-19T14:35:16;1.05;;;1.05;;
10479;SDS011;12789;42.610;23.040;2023-10-19T14:37:44;1.88;;;1.77;;